sensor_id;sensor_type;location;lat;lon;timestamp;P1;durP1;ratioP1;P2;durP2;ratioP2
55290;SDS011;41155;39.768;2.712;2024-02-04T00:01:32;35.10;;;27.50;;
55290;SDS011;41155;39.768;2.712;2024-02-04T00:03:57;43.42;;;29.83;;
55290;SDS011;41155;39.768;2.712;2024-02-04T00:06:22;39.63;;;28.38;;
55290;SDS011;41155;39.768;2.712;2024-02-04T00:08:48;38.15;;;28.70;;
55290;SDS011;41155;39.768;2.712;2024-02-04T00:11:14;40.65;;;30.95;;
55290;SDS011;41155;39.768;2.712;2024-02-04T00:13:39;53.00;;;31.90;;
55290;SDS011;41155;39.768;2.712;2024-02-04T00:16:05;50.83;;;33.30;;
55290;SDS011;41155;39.768;2.712;2024-02-04T00:18:31;42.67;;;29.88;;
55290;SDS011;41155;39.768;2.712;2024-02-04T00:20:57;37.03;;;28.77;;
55290;SDS011;41155;39.768;2.712;2024-02-04T00:23:22;41.97;;;27.05;;
55290;SDS011;41155;39.768;2.712;2024-02-04T00:25:48;52.65;;;37.65;;
55290;SDS011;41155;39.768;2.712;2024-02-04T00:28:13;40.67;;;33.47;;
55290;SDS011;41155;39.768;2.712;2024-02-04T00:30:39;33.28;;;28.02;;
55290;SDS011;41155;39.768;2.712;2024-02-04T00:33:04;50.30;;;30.92;;
55290;SDS011;41155;39.768;2.712;2024-02-04T00:35:30;45.17;;;31.45;;
55290;SDS011;41155;39.768;2.712;2024-02-04T00:37:56;41.65;;;32.45;;
55290;SDS011;41155;39.768;2.712;2024-02-04T00:40:22;48.80;;;36.70;;
55290;SDS011;41155;39.768;2.712;2024-02-04T00:42:47;46.63;;;34.40;;
55290;SDS011;41155;39.768;2.712;2024-02-04T00:45:13;52.28;;;31.88;;
55290;SDS011;41155;39.768;2.712;2024-02-04T00:47:38;44.17;;;30.00;;
55290;SDS011;41155;39.768;2.712;2024-02-04T00:50:04;55.38;;;37.15;;
55290;SDS011;41155;39.768;2.712;2024-02-04T00:52:30;54.80;;;42.92;;
55290;SDS011;41155;39.768;2.712;2024-02-04T00:54:55;51.20;;;41.75;;
55290;SDS011;41155;39.768;2.712;2024-02-04T00:57:21;42.03;;;34.95;;
55290;SDS011;41155;39.768;2.712;2024-02-04T00:59:46;44.17;;;33.47;;
55290;SDS011;41155;39.768;2.712;2024-02-04T01:02:12;51.53;;;43.22;;
55290;SDS011;41155;39.768;2.712;2024-02-04T01:04:38;51.88;;;39.65;;
55290;SDS011;41155;39.768;2.712;2024-02-04T01:07:03;47.70;;;38.72;;
55290;SDS011;41155;39.768;2.712;2024-02-04T01:09:28;59.20;;;38.88;;
55290;SDS011;41155;39.768;2.712;2024-02-04T01:11:54;41.00;;;35.88;;
55290;SDS011;41155;39.768;2.712;2024-02-04T01:14:20;47.22;;;35.90;;
55290;SDS011;41155;39.768;2.712;2024-02-04T01:16:45;45.95;;;34.83;;
55290;SDS011;41155;39.768;2.712;2024-02-04T01:19:10;49.72;;;36.25;;
55290;SDS011;41155;39.768;2.712;2024-02-04T01:21:36;52.20;;;36.28;;
55290;SDS011;41155;39.768;2.712;2024-02-04T01:24:01;44.47;;;31.30;;
55290;SDS011;41155;39.768;2.712;2024-02-04T01:26:27;42.00;;;30.08;;
55290;SDS011;41155;39.768;2.712;2024-02-04T01:28:53;41.78;;;29.90;;
55290;SDS011;41155;39.768;2.712;2024-02-04T01:31:18;46.67;;;32.42;;
55290;SDS011;41155;39.768;2.712;2024-02-04T01:33:44;48.20;;;35.78;;
55290;SDS011;41155;39.768;2.712;2024-02-04T01:36:09;61.78;;;47.42;;
55290;SDS011;41155;39.768;2.712;2024-02-04T01:38:35;64.03;;;49.38;;
55290;SDS011;41155;39.768;2.712;2024-02-04T01:41:00;70.57;;;49.08;;
55290;SDS011;41155;39.768;2.712;2024-02-04T01:43:26;53.85;;;39.65;;
55290;SDS011;41155;39.768;2.712;2024-02-04T01:45:51;44.63;;;35.80;;
55290;SDS011;41155;39.768;2.712;2024-02-04T01:48:18;39.53;;;30.02;;
55290;SDS011;41155;39.768;2.712;2024-02-04T01:50:44;47.78;;;36.38;;
55290;SDS011;41155;39.768;2.712;2024-02-04T01:53:12;52.88;;;33.15;;
55290;SDS011;41155;39.768;2.712;2024-02-04T01:55:38;49.75;;;36.53;;
55290;SDS011;41155;39.768;2.712;2024-02-04T01:58:04;53.88;;;37.53;;
55290;SDS011;41155;39.768;2.712;2024-02-04T02:00:30;45.80;;;35.17;;
55290;SDS011;41155;39.768;2.712;2024-02-04T02:02:56;44.63;;;35.45;;
55290;SDS011;41155;39.768;2.712;2024-02-04T02:05:24;49.47;;;36.58;;
55290;SDS011;41155;39.768;2.712;2024-02-04T02:07:50;55.03;;;38.50;;
55290;SDS011;41155;39.768;2.712;2024-02-04T02:10:17;53.15;;;37.80;;
55290;SDS011;41155;39.768;2.712;2024-02-04T02:15:26;50.28;;;34.55;;
55290;SDS011;41155;39.768;2.712;2024-02-04T02:20:30;45.15;;;35.03;;
55290;SDS011;41155;39.768;2.712;2024-02-04T02:23:07;50.47;;;45.20;;
55290;SDS011;41155;39.768;2.712;2024-02-04T02:25:37;52.42;;;43.80;;
55290;SDS011;41155;39.768;2.712;2024-02-04T02:28:03;59.13;;;41.72;;
55290;SDS011;41155;39.768;2.712;2024-02-04T02:30:29;48.28;;;38.17;;
55290;SDS011;41155;39.768;2.712;2024-02-04T02:32:55;41.97;;;36.28;;
55290;SDS011;41155;39.768;2.712;2024-02-04T02:35:21;47.53;;;36.70;;
55290;SDS011;41155;39.768;2.712;2024-02-04T02:40:59;38.38;;;32.33;;
55290;SDS011;41155;39.768;2.712;2024-02-04T02:43:29;40.67;;;30.02;;
55290;SDS011;41155;39.768;2.712;2024-02-04T02:45:55;59.42;;;47.40;;
55290;SDS011;41155;39.768;2.712;2024-02-04T02:48:22;66.22;;;50.55;;
55290;SDS011;41155;39.768;2.712;2024-02-04T02:50:48;56.28;;;41.47;;
55290;SDS011;41155;39.768;2.712;2024-02-04T02:53:13;42.35;;;35.63;;
55290;SDS011;41155;39.768;2.712;2024-02-04T02:55:39;50.03;;;38.28;;
55290;SDS011;41155;39.768;2.712;2024-02-04T02:58:06;45.38;;;33.45;;
55290;SDS011;41155;39.768;2.712;2024-02-04T03:00:31;46.85;;;33.45;;
55290;SDS011;41155;39.768;2.712;2024-02-04T03:02:56;65.47;;;44.65;;
55290;SDS011;41155;39.768;2.712;2024-02-04T03:05:23;54.03;;;48.10;;
55290;SDS011;41155;39.768;2.712;2024-02-04T03:07:49;52.45;;;41.60;;
55290;SDS011;41155;39.768;2.712;2024-02-04T03:10:14;59.05;;;45.45;;
55290;SDS011;41155;39.768;2.712;2024-02-04T03:12:40;45.97;;;39.05;;
55290;SDS011;41155;39.768;2.712;2024-02-04T03:15:05;42.65;;;35.22;;
55290;SDS011;41155;39.768;2.712;2024-02-04T03:17:31;37.50;;;31.02;;
55290;SDS011;41155;39.768;2.712;2024-02-04T03:19:56;42.60;;;30.30;;
55290;SDS011;41155;39.768;2.712;2024-02-04T03:22:22;40.05;;;30.25;;
55290;SDS011;41155;39.768;2.712;2024-02-04T03:24:48;33.15;;;26.73;;
55290;SDS011;41155;39.768;2.712;2024-02-04T03:27:15;39.10;;;31.98;;
55290;SDS011;41155;39.768;2.712;2024-02-04T03:29:44;54.05;;;46.92;;
55290;SDS011;41155;39.768;2.712;2024-02-04T03:32:10;36.78;;;31.20;;
55290;SDS011;41155;39.768;2.712;2024-02-04T03:34:36;42.03;;;33.17;;
55290;SDS011;41155;39.768;2.712;2024-02-04T03:37:01;43.38;;;33.85;;
55290;SDS011;41155;39.768;2.712;2024-02-04T03:39:27;44.55;;;35.60;;
55290;SDS011;41155;39.768;2.712;2024-02-04T03:41:53;44.80;;;35.50;;
55290;SDS011;41155;39.768;2.712;2024-02-04T03:44:18;48.05;;;36.97;;
55290;SDS011;41155;39.768;2.712;2024-02-04T03:46:47;45.92;;;36.85;;
55290;SDS011;41155;39.768;2.712;2024-02-04T03:49:13;46.58;;;38.10;;
55290;SDS011;41155;39.768;2.712;2024-02-04T03:51:39;82.13;;;65.25;;
55290;SDS011;41155;39.768;2.712;2024-02-04T03:54:05;60.17;;;45.67;;
55290;SDS011;41155;39.768;2.712;2024-02-04T03:56:30;58.42;;;40.20;;
55290;SDS011;41155;39.768;2.712;2024-02-04T03:58:56;50.53;;;34.33;;
55290;SDS011;41155;39.768;2.712;2024-02-04T04:01:21;33.88;;;27.50;;
55290;SDS011;41155;39.768;2.712;2024-02-04T04:03:47;45.65;;;31.65;;
55290;SDS011;41155;39.768;2.712;2024-02-04T04:06:12;47.42;;;33.90;;
55290;SDS011;41155;39.768;2.712;2024-02-04T04:08:38;38.83;;;29.65;;
55290;SDS011;41155;39.768;2.712;2024-02-04T04:11:03;35.97;;;28.90;;
55290;SDS011;41155;39.768;2.712;2024-02-04T04:13:29;38.22;;;29.95;;
55290;SDS011;41155;39.768;2.712;2024-02-04T04:15:55;46.97;;;30.88;;
55290;SDS011;41155;39.768;2.712;2024-02-04T04:18:20;42.22;;;32.03;;
55290;SDS011;41155;39.768;2.712;2024-02-04T04:20:46;46.85;;;32.55;;
55290;SDS011;41155;39.768;2.712;2024-02-04T04:23:12;47.83;;;37.22;;
55290;SDS011;41155;39.768;2.712;2024-02-04T04:25:37;56.55;;;39.60;;
55290;SDS011;41155;39.768;2.712;2024-02-04T04:28:03;57.28;;;39.17;;
55290;SDS011;41155;39.768;2.712;2024-02-04T04:30:28;69.47;;;40.45;;
55290;SDS011;41155;39.768;2.712;2024-02-04T04:32:54;71.97;;;42.88;;
55290;SDS011;41155;39.768;2.712;2024-02-04T04:35:21;67.60;;;42.92;;
55290;SDS011;41155;39.768;2.712;2024-02-04T04:37:47;74.15;;;40.35;;
55290;SDS011;41155;39.768;2.712;2024-02-04T04:40:12;77.43;;;45.55;;
55290;SDS011;41155;39.768;2.712;2024-02-04T04:42:38;64.63;;;41.72;;
55290;SDS011;41155;39.768;2.712;2024-02-04T04:45:03;64.28;;;40.20;;
55290;SDS011;41155;39.768;2.712;2024-02-04T04:47:29;55.83;;;36.58;;
55290;SDS011;41155;39.768;2.712;2024-02-04T04:49:55;60.90;;;47.08;;
55290;SDS011;41155;39.768;2.712;2024-02-04T04:52:20;53.45;;;41.20;;
55290;SDS011;41155;39.768;2.712;2024-02-04T04:54:46;51.20;;;35.03;;
55290;SDS011;41155;39.768;2.712;2024-02-04T04:57:11;68.75;;;58.47;;
55290;SDS011;41155;39.768;2.712;2024-02-04T04:59:37;40.40;;;29.85;;
55290;SDS011;41155;39.768;2.712;2024-02-04T05:02:03;40.15;;;28.00;;
55290;SDS011;41155;39.768;2.712;2024-02-04T05:04:29;35.70;;;29.15;;
55290;SDS011;41155;39.768;2.712;2024-02-04T05:06:55;71.28;;;48.70;;
55290;SDS011;41155;39.768;2.712;2024-02-04T05:09:20;356.08;;;203.35;;
55290;SDS011;41155;39.768;2.712;2024-02-04T05:11:46;163.55;;;96.18;;
55290;SDS011;41155;39.768;2.712;2024-02-04T05:14:11;113.88;;;71.03;;
55290;SDS011;41155;39.768;2.712;2024-02-04T05:16:37;120.95;;;69.38;;
55290;SDS011;41155;39.768;2.712;2024-02-04T05:19:02;84.03;;;53.50;;
55290;SDS011;41155;39.768;2.712;2024-02-04T05:21:28;76.35;;;50.67;;
55290;SDS011;41155;39.768;2.712;2024-02-04T05:23:54;101.20;;;67.57;;
55290;SDS011;41155;39.768;2.712;2024-02-04T05:26:19;80.15;;;50.47;;
55290;SDS011;41155;39.768;2.712;2024-02-04T05:28:45;61.58;;;41.83;;
55290;SDS011;41155;39.768;2.712;2024-02-04T05:31:11;63.03;;;44.67;;
55290;SDS011;41155;39.768;2.712;2024-02-04T05:33:36;61.53;;;41.65;;
55290;SDS011;41155;39.768;2.712;2024-02-04T05:36:05;40.63;;;31.05;;
55290;SDS011;41155;39.768;2.712;2024-02-04T05:38:30;45.03;;;29.23;;
55290;SDS011;41155;39.768;2.712;2024-02-04T05:40:56;39.45;;;29.63;;
55290;SDS011;41155;39.768;2.712;2024-02-04T05:43:21;37.50;;;27.40;;
55290;SDS011;41155;39.768;2.712;2024-02-04T05:45:47;37.40;;;26.88;;
55290;SDS011;41155;39.768;2.712;2024-02-04T05:48:12;37.88;;;26.33;;
55290;SDS011;41155;39.768;2.712;2024-02-04T05:50:38;30.42;;;24.10;;
55290;SDS011;41155;39.768;2.712;2024-02-04T05:53:04;32.47;;;24.08;;
55290;SDS011;41155;39.768;2.712;2024-02-04T05:55:30;38.63;;;24.98;;
55290;SDS011;41155;39.768;2.712;2024-02-04T05:57:55;33.97;;;21.83;;
55290;SDS011;41155;39.768;2.712;2024-02-04T06:00:21;42.35;;;37.85;;
55290;SDS011;41155;39.768;2.712;2024-02-04T06:02:46;54.17;;;48.40;;
55290;SDS011;41155;39.768;2.712;2024-02-04T06:05:12;41.78;;;37.08;;
55290;SDS011;41155;39.768;2.712;2024-02-04T06:07:38;50.25;;;31.30;;
55290;SDS011;41155;39.768;2.712;2024-02-04T06:10:04;40.00;;;26.58;;
55290;SDS011;41155;39.768;2.712;2024-02-04T06:12:30;39.25;;;24.35;;
55290;SDS011;41155;39.768;2.712;2024-02-04T06:14:56;27.35;;;21.52;;
55290;SDS011;41155;39.768;2.712;2024-02-04T06:17:22;28.30;;;21.25;;
55290;SDS011;41155;39.768;2.712;2024-02-04T06:19:47;32.05;;;22.48;;
55290;SDS011;41155;39.768;2.712;2024-02-04T06:22:14;43.40;;;24.05;;
55290;SDS011;41155;39.768;2.712;2024-02-04T06:24:42;41.15;;;25.13;;
55290;SDS011;41155;39.768;2.712;2024-02-04T06:27:08;22.83;;;17.33;;
55290;SDS011;41155;39.768;2.712;2024-02-04T06:29:33;30.02;;;20.13;;
55290;SDS011;41155;39.768;2.712;2024-02-04T06:31:59;30.85;;;22.63;;
55290;SDS011;41155;39.768;2.712;2024-02-04T06:34:25;29.38;;;23.98;;
55290;SDS011;41155;39.768;2.712;2024-02-04T06:36:50;28.52;;;22.88;;
55290;SDS011;41155;39.768;2.712;2024-02-04T06:39:16;28.80;;;22.17;;
55290;SDS011;41155;39.768;2.712;2024-02-04T06:41:41;27.25;;;20.30;;
55290;SDS011;41155;39.768;2.712;2024-02-04T06:44:07;25.85;;;18.98;;
55290;SDS011;41155;39.768;2.712;2024-02-04T06:46:32;29.00;;;19.83;;
55290;SDS011;41155;39.768;2.712;2024-02-04T06:48:58;27.88;;;20.88;;
55290;SDS011;41155;39.768;2.712;2024-02-04T06:51:24;29.10;;;21.05;;
55290;SDS011;41155;39.768;2.712;2024-02-04T06:53:49;33.00;;;20.85;;
55290;SDS011;41155;39.768;2.712;2024-02-04T06:56:15;22.95;;;20.05;;
55290;SDS011;41155;39.768;2.712;2024-02-04T06:58:40;26.50;;;19.80;;
55290;SDS011;41155;39.768;2.712;2024-02-04T07:01:07;24.45;;;19.42;;
55290;SDS011;41155;39.768;2.712;2024-02-04T07:03:32;26.33;;;19.35;;
55290;SDS011;41155;39.768;2.712;2024-02-04T07:05:58;24.08;;;19.25;;
55290;SDS011;41155;39.768;2.712;2024-02-04T07:08:24;23.85;;;17.90;;
55290;SDS011;41155;39.768;2.712;2024-02-04T07:10:50;29.20;;;18.08;;
55290;SDS011;41155;39.768;2.712;2024-02-04T07:13:16;28.35;;;20.08;;
55290;SDS011;41155;39.768;2.712;2024-02-04T07:15:42;28.77;;;17.83;;
55290;SDS011;41155;39.768;2.712;2024-02-04T07:18:07;24.75;;;18.08;;
55290;SDS011;41155;39.768;2.712;2024-02-04T07:20:33;24.40;;;18.90;;
55290;SDS011;41155;39.768;2.712;2024-02-04T07:22:59;21.42;;;18.33;;
55290;SDS011;41155;39.768;2.712;2024-02-04T07:25:24;23.20;;;17.77;;
55290;SDS011;41155;39.768;2.712;2024-02-04T07:27:50;26.23;;;17.65;;
55290;SDS011;41155;39.768;2.712;2024-02-04T07:30:16;28.40;;;19.65;;
55290;SDS011;41155;39.768;2.712;2024-02-04T07:32:42;33.15;;;20.85;;
55290;SDS011;41155;39.768;2.712;2024-02-04T07:35:07;28.48;;;22.10;;
55290;SDS011;41155;39.768;2.712;2024-02-04T07:37:34;25.10;;;20.88;;
55290;SDS011;41155;39.768;2.712;2024-02-04T07:40:00;29.38;;;21.55;;
55290;SDS011;41155;39.768;2.712;2024-02-04T07:42:26;24.98;;;19.33;;
55290;SDS011;41155;39.768;2.712;2024-02-04T07:44:54;31.55;;;27.42;;
55290;SDS011;41155;39.768;2.712;2024-02-04T07:47:20;37.92;;;27.05;;
55290;SDS011;41155;39.768;2.712;2024-02-04T07:49:46;33.72;;;28.27;;
55290;SDS011;41155;39.768;2.712;2024-02-04T07:52:13;31.90;;;25.98;;
55290;SDS011;41155;39.768;2.712;2024-02-04T07:54:38;29.95;;;25.95;;
55290;SDS011;41155;39.768;2.712;2024-02-04T07:57:04;39.65;;;28.90;;
55290;SDS011;41155;39.768;2.712;2024-02-04T07:59:30;41.05;;;29.38;;
55290;SDS011;41155;39.768;2.712;2024-02-04T08:01:55;37.67;;;27.77;;
55290;SDS011;41155;39.768;2.712;2024-02-04T08:04:21;41.40;;;27.63;;
55290;SDS011;41155;39.768;2.712;2024-02-04T08:06:46;41.15;;;28.67;;
55290;SDS011;41155;39.768;2.712;2024-02-04T08:09:12;37.33;;;32.92;;
55290;SDS011;41155;39.768;2.712;2024-02-04T08:11:37;56.08;;;47.40;;
55290;SDS011;41155;39.768;2.712;2024-02-04T08:14:03;192.30;;;136.52;;
55290;SDS011;41155;39.768;2.712;2024-02-04T08:16:28;165.65;;;131.90;;
55290;SDS011;41155;39.768;2.712;2024-02-04T08:18:54;294.80;;;229.23;;
55290;SDS011;41155;39.768;2.712;2024-02-04T08:21:20;217.88;;;164.07;;
55290;SDS011;41155;39.768;2.712;2024-02-04T08:23:45;212.75;;;161.70;;
55290;SDS011;41155;39.768;2.712;2024-02-04T08:26:11;191.93;;;140.52;;
55290;SDS011;41155;39.768;2.712;2024-02-04T08:28:36;185.77;;;142.77;;
55290;SDS011;41155;39.768;2.712;2024-02-04T08:31:02;203.77;;;148.63;;
55290;SDS011;41155;39.768;2.712;2024-02-04T08:33:27;179.85;;;135.13;;
55290;SDS011;41155;39.768;2.712;2024-02-04T08:35:52;314.88;;;208.40;;
55290;SDS011;41155;39.768;2.712;2024-02-04T08:38:18;266.23;;;181.00;;
55290;SDS011;41155;39.768;2.712;2024-02-04T08:40:43;160.45;;;110.63;;
55290;SDS011;41155;39.768;2.712;2024-02-04T08:43:09;396.25;;;264.23;;
55290;SDS011;41155;39.768;2.712;2024-02-04T08:45:34;675.28;;;514.97;;
55290;SDS011;41155;39.768;2.712;2024-02-04T08:48:00;833.45;;;643.83;;
55290;SDS011;41155;39.768;2.712;2024-02-04T08:50:25;673.38;;;525.20;;
55290;SDS011;41155;39.768;2.712;2024-02-04T08:52:54;490.05;;;358.92;;
55290;SDS011;41155;39.768;2.712;2024-02-04T08:55:19;417.35;;;282.38;;
55290;SDS011;41155;39.768;2.712;2024-02-04T08:57:45;461.88;;;323.23;;
55290;SDS011;41155;39.768;2.712;2024-02-04T09:00:13;356.35;;;212.75;;
55290;SDS011;41155;39.768;2.712;2024-02-04T09:02:39;244.70;;;160.27;;
55290;SDS011;41155;39.768;2.712;2024-02-04T09:05:05;129.80;;;84.68;;
55290;SDS011;41155;39.768;2.712;2024-02-04T09:07:31;156.38;;;91.95;;
55290;SDS011;41155;39.768;2.712;2024-02-04T09:09:56;136.82;;;88.07;;
55290;SDS011;41155;39.768;2.712;2024-02-04T09:12:22;113.15;;;75.68;;
55290;SDS011;41155;39.768;2.712;2024-02-04T09:14:48;80.75;;;53.70;;
55290;SDS011;41155;39.768;2.712;2024-02-04T09:17:13;93.28;;;61.17;;
55290;SDS011;41155;39.768;2.712;2024-02-04T09:19:39;91.30;;;65.28;;
55290;SDS011;41155;39.768;2.712;2024-02-04T09:22:04;108.70;;;70.68;;
55290;SDS011;41155;39.768;2.712;2024-02-04T09:24:30;92.20;;;58.08;;
55290;SDS011;41155;39.768;2.712;2024-02-04T09:26:56;68.35;;;46.67;;
55290;SDS011;41155;39.768;2.712;2024-02-04T09:29:21;89.10;;;51.25;;
55290;SDS011;41155;39.768;2.712;2024-02-04T09:31:47;74.28;;;57.97;;
55290;SDS011;41155;39.768;2.712;2024-02-04T09:34:14;85.32;;;64.70;;
55290;SDS011;41155;39.768;2.712;2024-02-04T09:36:40;80.20;;;58.83;;
55290;SDS011;41155;39.768;2.712;2024-02-04T09:39:05;67.65;;;51.75;;
55290;SDS011;41155;39.768;2.712;2024-02-04T09:41:31;73.25;;;47.25;;
55290;SDS011;41155;39.768;2.712;2024-02-04T09:43:57;50.88;;;35.35;;
55290;SDS011;41155;39.768;2.712;2024-02-04T09:46:23;35.85;;;27.23;;
55290;SDS011;41155;39.768;2.712;2024-02-04T09:48:49;34.05;;;19.02;;
55290;SDS011;41155;39.768;2.712;2024-02-04T09:51:17;23.52;;;13.98;;
55290;SDS011;41155;39.768;2.712;2024-02-04T09:53:43;32.10;;;18.67;;
55290;SDS011;41155;39.768;2.712;2024-02-04T09:56:10;75.18;;;48.85;;
55290;SDS011;41155;39.768;2.712;2024-02-04T09:58:37;68.32;;;47.40;;
55290;SDS011;41155;39.768;2.712;2024-02-04T10:01:06;43.45;;;26.65;;
55290;SDS011;41155;39.768;2.712;2024-02-04T10:03:35;29.05;;;13.63;;
55290;SDS011;41155;39.768;2.712;2024-02-04T10:06:00;22.73;;;14.45;;
55290;SDS011;41155;39.768;2.712;2024-02-04T10:08:26;16.27;;;9.70;;
55290;SDS011;41155;39.768;2.712;2024-02-04T10:10:51;32.45;;;19.02;;
55290;SDS011;41155;39.768;2.712;2024-02-04T10:13:19;20.58;;;11.27;;
55290;SDS011;41155;39.768;2.712;2024-02-04T10:15:44;25.50;;;12.70;;
55290;SDS011;41155;39.768;2.712;2024-02-04T10:18:10;20.05;;;13.23;;
55290;SDS011;41155;39.768;2.712;2024-02-04T10:20:35;20.33;;;11.73;;
55290;SDS011;41155;39.768;2.712;2024-02-04T10:23:01;20.50;;;14.70;;
55290;SDS011;41155;39.768;2.712;2024-02-04T10:25:26;21.80;;;11.95;;
55290;SDS011;41155;39.768;2.712;2024-02-04T10:27:52;23.52;;;13.48;;
55290;SDS011;41155;39.768;2.712;2024-02-04T10:30:19;25.17;;;16.23;;
55290;SDS011;41155;39.768;2.712;2024-02-04T10:32:46;22.55;;;15.02;;
55290;SDS011;41155;39.768;2.712;2024-02-04T10:35:12;18.70;;;11.98;;
55290;SDS011;41155;39.768;2.712;2024-02-04T10:37:37;23.20;;;12.70;;
55290;SDS011;41155;39.768;2.712;2024-02-04T10:40:03;14.57;;;10.90;;
55290;SDS011;41155;39.768;2.712;2024-02-04T10:42:29;18.75;;;12.10;;
55290;SDS011;41155;39.768;2.712;2024-02-04T10:44:57;23.10;;;13.27;;
55290;SDS011;41155;39.768;2.712;2024-02-04T10:47:24;23.00;;;14.07;;
55290;SDS011;41155;39.768;2.712;2024-02-04T10:49:57;27.15;;;16.73;;
55290;SDS011;41155;39.768;2.712;2024-02-04T10:52:25;36.42;;;18.65;;
55290;SDS011;41155;39.768;2.712;2024-02-04T10:54:52;28.80;;;17.60;;
55290;SDS011;41155;39.768;2.712;2024-02-04T10:57:21;26.05;;;15.23;;
55290;SDS011;41155;39.768;2.712;2024-02-04T10:59:51;25.50;;;16.35;;
55290;SDS011;41155;39.768;2.712;2024-02-04T11:02:17;24.67;;;16.67;;
55290;SDS011;41155;39.768;2.712;2024-02-04T11:04:45;35.00;;;20.38;;
55290;SDS011;41155;39.768;2.712;2024-02-04T11:07:13;38.58;;;26.67;;
55290;SDS011;41155;39.768;2.712;2024-02-04T11:09:40;31.42;;;18.98;;
55290;SDS011;41155;39.768;2.712;2024-02-04T11:12:07;33.63;;;18.40;;
55290;SDS011;41155;39.768;2.712;2024-02-04T11:14:37;44.20;;;32.28;;
55290;SDS011;41155;39.768;2.712;2024-02-04T11:19:47;51.80;;;35.65;;
55290;SDS011;41155;39.768;2.712;2024-02-04T11:25:31;51.17;;;38.17;;
55290;SDS011;41155;39.768;2.712;2024-02-04T11:28:05;60.47;;;44.45;;
55290;SDS011;41155;39.768;2.712;2024-02-04T11:30:34;77.53;;;42.80;;
55290;SDS011;41155;39.768;2.712;2024-02-04T11:33:01;57.38;;;42.33;;
55290;SDS011;41155;39.768;2.712;2024-02-04T11:35:28;39.05;;;27.75;;
55290;SDS011;41155;39.768;2.712;2024-02-04T11:37:54;25.13;;;18.45;;
55290;SDS011;41155;39.768;2.712;2024-02-04T11:40:20;35.70;;;23.45;;
55290;SDS011;41155;39.768;2.712;2024-02-04T11:42:48;50.47;;;26.70;;
55290;SDS011;41155;39.768;2.712;2024-02-04T11:45:14;53.67;;;35.20;;
55290;SDS011;41155;39.768;2.712;2024-02-04T11:47:41;52.58;;;29.58;;
55290;SDS011;41155;39.768;2.712;2024-02-04T11:50:07;39.83;;;25.92;;
55290;SDS011;41155;39.768;2.712;2024-02-04T11:52:34;39.10;;;23.33;;
55290;SDS011;41155;39.768;2.712;2024-02-04T11:55:00;43.70;;;20.25;;
55290;SDS011;41155;39.768;2.712;2024-02-04T11:57:26;22.90;;;14.35;;
55290;SDS011;41155;39.768;2.712;2024-02-04T11:59:52;23.50;;;12.35;;
55290;SDS011;41155;39.768;2.712;2024-02-04T12:02:22;21.52;;;15.18;;
55290;SDS011;41155;39.768;2.712;2024-02-04T12:04:48;36.63;;;14.52;;
55290;SDS011;41155;39.768;2.712;2024-02-04T12:07:14;26.60;;;16.45;;
55290;SDS011;41155;39.768;2.712;2024-02-04T12:09:43;19.95;;;13.05;;
55290;SDS011;41155;39.768;2.712;2024-02-04T12:12:09;21.00;;;12.95;;
55290;SDS011;41155;39.768;2.712;2024-02-04T12:14:36;18.75;;;11.98;;
55290;SDS011;41155;39.768;2.712;2024-02-04T12:17:11;20.17;;;12.25;;
55290;SDS011;41155;39.768;2.712;2024-02-04T12:19:38;16.17;;;11.00;;
55290;SDS011;41155;39.768;2.712;2024-02-04T12:22:04;14.77;;;9.88;;
55290;SDS011;41155;39.768;2.712;2024-02-04T12:24:34;17.25;;;10.32;;
55290;SDS011;41155;39.768;2.712;2024-02-04T12:27:02;19.15;;;9.20;;
55290;SDS011;41155;39.768;2.712;2024-02-04T12:29:28;12.27;;;8.88;;
55290;SDS011;41155;39.768;2.712;2024-02-04T12:32:00;22.55;;;9.30;;
55290;SDS011;41155;39.768;2.712;2024-02-04T12:37:02;20.48;;;11.02;;
55290;SDS011;41155;39.768;2.712;2024-02-04T12:39:28;15.82;;;8.82;;
55290;SDS011;41155;39.768;2.712;2024-02-04T12:41:54;19.45;;;9.10;;
55290;SDS011;41155;39.768;2.712;2024-02-04T12:44:20;13.30;;;8.00;;
55290;SDS011;41155;39.768;2.712;2024-02-04T12:46:49;11.55;;;7.50;;
55290;SDS011;41155;39.768;2.712;2024-02-04T12:49:18;20.60;;;7.85;;
55290;SDS011;41155;39.768;2.712;2024-02-04T12:51:46;16.38;;;7.22;;
55290;SDS011;41155;39.768;2.712;2024-02-04T12:54:12;26.23;;;8.23;;
55290;SDS011;41155;39.768;2.712;2024-02-04T12:59:31;28.33;;;7.72;;
55290;SDS011;41155;39.768;2.712;2024-02-04T13:02:02;16.58;;;7.03;;
55290;SDS011;41155;39.768;2.712;2024-02-04T13:04:39;14.73;;;7.53;;
55290;SDS011;41155;39.768;2.712;2024-02-04T13:07:13;13.52;;;7.25;;
55290;SDS011;41155;39.768;2.712;2024-02-04T13:09:41;21.73;;;7.47;;
55290;SDS011;41155;39.768;2.712;2024-02-04T13:12:08;18.95;;;8.40;;
55290;SDS011;41155;39.768;2.712;2024-02-04T13:14:35;14.73;;;7.93;;
55290;SDS011;41155;39.768;2.712;2024-02-04T13:17:02;14.40;;;9.20;;
55290;SDS011;41155;39.768;2.712;2024-02-04T13:19:34;22.95;;;11.02;;
55290;SDS011;41155;39.768;2.712;2024-02-04T13:22:01;11.97;;;8.63;;
55290;SDS011;41155;39.768;2.712;2024-02-04T13:24:28;11.70;;;6.53;;
55290;SDS011;41155;39.768;2.712;2024-02-04T13:26:54;14.45;;;6.43;;
55290;SDS011;41155;39.768;2.712;2024-02-04T13:29:19;15.45;;;6.70;;
55290;SDS011;41155;39.768;2.712;2024-02-04T13:31:45;12.77;;;7.25;;
55290;SDS011;41155;39.768;2.712;2024-02-04T13:34:10;15.13;;;7.93;;
55290;SDS011;41155;39.768;2.712;2024-02-04T13:36:36;11.43;;;5.88;;
55290;SDS011;41155;39.768;2.712;2024-02-04T13:39:01;9.18;;;5.55;;
55290;SDS011;41155;39.768;2.712;2024-02-04T13:41:27;12.43;;;6.20;;
55290;SDS011;41155;39.768;2.712;2024-02-04T13:43:53;14.45;;;5.53;;
55290;SDS011;41155;39.768;2.712;2024-02-04T13:46:19;13.68;;;5.38;;
55290;SDS011;41155;39.768;2.712;2024-02-04T13:48:44;12.95;;;5.82;;
55290;SDS011;41155;39.768;2.712;2024-02-04T13:51:10;14.20;;;6.78;;
55290;SDS011;41155;39.768;2.712;2024-02-04T13:53:36;20.10;;;8.45;;
55290;SDS011;41155;39.768;2.712;2024-02-04T13:56:01;11.85;;;5.43;;
55290;SDS011;41155;39.768;2.712;2024-02-04T13:58:27;16.77;;;6.55;;
55290;SDS011;41155;39.768;2.712;2024-02-04T14:00:53;15.23;;;6.07;;
55290;SDS011;41155;39.768;2.712;2024-02-04T14:03:18;13.85;;;6.30;;
55290;SDS011;41155;39.768;2.712;2024-02-04T14:05:44;20.00;;;6.25;;
55290;SDS011;41155;39.768;2.712;2024-02-04T14:08:10;9.65;;;6.10;;
55290;SDS011;41155;39.768;2.712;2024-02-04T14:10:35;17.33;;;6.53;;
55290;SDS011;41155;39.768;2.712;2024-02-04T14:13:01;10.77;;;5.05;;
55290;SDS011;41155;39.768;2.712;2024-02-04T14:15:27;19.50;;;6.68;;
55290;SDS011;41155;39.768;2.712;2024-02-04T14:17:53;16.50;;;6.22;;
55290;SDS011;41155;39.768;2.712;2024-02-04T14:20:19;12.45;;;6.80;;
55290;SDS011;41155;39.768;2.712;2024-02-04T14:22:44;13.85;;;6.63;;
55290;SDS011;41155;39.768;2.712;2024-02-04T14:25:10;12.05;;;5.80;;
55290;SDS011;41155;39.768;2.712;2024-02-04T14:27:36;18.02;;;5.95;;
55290;SDS011;41155;39.768;2.712;2024-02-04T14:30:02;13.25;;;6.07;;
55290;SDS011;41155;39.768;2.712;2024-02-04T14:32:28;8.55;;;5.07;;
55290;SDS011;41155;39.768;2.712;2024-02-04T14:34:53;14.68;;;6.47;;